Boyd Deep Canyon Reserve, California Weather observations

Data are for 10 minute period ending at time listed.
 Day   Time   Solar   Ave.   Ave.  Ave.  Vector  Max.   Baro.   Total    
  of    of     Rad.   Air    Rel.  Wind   Wind   Wind  Press.  Precip.   
Year   Day            Temp.  Hum.  Speed  Dir.   Gust                    
2016   (PST)  Kw/m2    F      %     mph   deg.    mph    mb.     in.     
-------------------------------------------------------------------------
 207   13:40   0.48  102.0    22    4.4    50     8.1   975.5    0.00 
 207   13:50   0.41  101.9    22    4.2    10    11.5   975.4    0.00 
 207   14:00   0.47  102.3    22    5.5     6     8.3   975.3    0.00 
 207   14:10   0.40  101.7    22    4.4    38     7.9   975.2    0.00 
 207   14:20   0.56  102.4    21    4.1    29     7.7   975.0    0.00 
 207   14:30   0.73  102.7    21    3.7    75     6.4   974.9    0.00 
 207   14:40   0.77  103.4    20    4.0    56     7.5   974.7    0.00 
 207   14:50   0.67  104.0    19    4.1    14     8.0   974.6    0.00 
 207   15:00   0.37  103.6    19    4.8     2     8.6   974.5    0.00 
 207   15:10   0.38  103.1    19    3.0    68     5.8   974.3    0.00 
 207   15:20   0.38  104.2    18    2.7    12     6.0   974.2    0.00 
 207   15:30   0.41  104.0    18    3.3   358     7.0   974.1    0.00 
 207   15:40   0.46  104.6    18    3.8     4     8.0   974.0    0.00 
 207   15:50   0.43  104.8    18    2.1   116     4.9   973.8    0.00 
 207   16:00   0.48  105.2    17    4.9    12     9.1   973.7    0.00 
 207   16:10   0.39  104.8    17    4.4     1     8.9   973.5    0.00 
 207   16:20   0.37  105.6    15    2.6   350     5.7   973.5    0.00 
 207   16:30   0.36  106.5    14    1.6    43     6.0   973.4    0.00 
 207   16:40   0.31  105.4    14    5.5   353     9.1   973.4    0.00 
 207   16:50   0.23  105.1    14    5.4    12     8.1   973.3    0.00 
 207   17:00   0.10  104.1    19    5.2    35     8.7   973.3    0.00 
 207   17:10   0.08  102.2    26    6.2    55    10.1   973.4    0.00 
 207   17:20   0.07  101.4    26    5.8    63     9.9   973.4    0.00 
 207   17:30   0.14  101.6    26    5.0    72     8.0   973.4    0.00 
 207   17:40   0.13  102.1    26    5.4    69     7.9   973.4    0.00 
 207   17:50   0.05  101.2    27    4.7    92     7.6   973.4    0.00 
 207   18:00   0.04  100.8    28    4.7    98     9.0   973.5    0.00 
 207   18:10   0.03  100.6    28    3.3   103     7.1   973.5    0.00 
 207   18:20   0.02  100.6    26    3.2   109     5.9   973.6    0.00 
 207   18:30   0.01  100.7    26    3.3    86     6.8   973.6    0.00 
 207   18:40   0.00  100.1    29    3.7    70     5.8   973.7    0.00 
 207   18:50   0.00   99.9    29    3.6    61     7.2   973.7    0.00 
 207   19:00   0.00   99.6    29    4.8    60     6.9   973.9    0.00 
 207   19:10   0.00   99.9    26    2.7   351     4.1   974.0    0.00 
 207   19:20   0.00   99.8    24    0.9    10     2.9   974.0    0.00 
 207   19:30   0.00   99.5    23    0.3    35     2.4   974.1    0.00 
 207   19:40   0.00   99.5    23    1.5    91     3.5   974.2    0.00 
 207   19:50   0.00   99.4    18    2.8   176     5.8   974.3    0.00 
 207   20:00   0.00   99.3    17    3.0   186     6.5   974.4    0.00 
 207   20:10   0.00   99.0    18    2.2   214     4.7   974.6    0.00 
 207   20:20   0.00   98.0    26    2.7   345     6.5   974.7    0.00 
 207   20:30   0.00   97.5    26    3.8   290     7.1   974.8    0.00 
 207   20:40   0.00   97.3    26    2.5   266     5.8   974.7    0.00 
 207   20:50   0.00   97.1    26    2.4   274     6.5   974.8    0.00 
 207   21:00   0.00   96.5    28    0.9   100     2.8   974.8    0.00 
 207   21:10   0.00   95.3    31    2.4    43     3.8   974.9    0.00 
 207   21:20   0.00   94.4    35    0.6   337     2.0   974.9    0.00 
 207   21:30   0.00   94.1    35    1.5   322     3.1   975.0    0.00 
 207   21:40   0.00   94.0    35    0.8   101     2.5   975.0    0.00 
 207   21:50   0.00   93.9    36    0.6   109     2.3   974.9    0.00 
 207   22:00   0.00   94.1    36    2.6   137     4.9   974.9    0.00 
 207   22:10   0.00   94.2    35    2.0   210     3.5   974.9    0.00 
 207   22:20   0.00   94.0    35    1.0   203     2.4   974.9    0.00 
 207   22:30   0.00   93.7    32    1.8    20     4.5   975.0    0.00 
 207   22:40   0.00   93.2    28    0.4    14     2.0   975.1    0.00 
 207   22:50   0.00   92.8    27    1.4    51     2.6   975.1    0.00 
 207   23:00   0.00   92.8    26    0.6   236     1.8   975.1    0.00 
 207   23:10   0.00   92.5    27    1.0   224     2.3   975.1    0.00 
 207   23:20   0.00   92.3    27    1.7     1     3.1   975.1    0.00 
 207   23:30   0.00   91.3    27    3.8    40     7.2   975.1    0.00 
 207   23:40   0.00   90.6    28    3.3    53     5.4   975.0    0.00 
 207   23:50   0.00   90.0    28    3.6    25     6.8   975.0    0.00 
 208    0:00   0.00   89.5    28    1.5    62     3.9   975.0    0.00 
 208    0:10   0.00   89.3    28    0.3    45     2.5   974.9    0.00 
 208    0:20   0.00   88.8    29    0.7   186     3.4   974.9    0.00 
 208    0:30   0.00   88.8    29    0.6   208     2.6   974.8    0.00 
 208    0:40   0.00   88.6    30    2.9    25     4.5   974.9    0.00 
 208    0:50   0.00   88.3    30    1.0   355     3.4   975.2    0.00 
 208    1:00   0.00   88.2    30    2.2    68     4.2   975.1    0.00 
 208    1:10   0.00   88.2    30    2.8    45     5.0   975.3    0.00 
 208    1:20   0.00   88.2    30    2.7   195     4.0   975.1    0.00 
 208    1:30   0.00   87.9    30    1.8    73     3.9   975.0    0.00 
 208    1:40   0.00   87.4    30    2.8    56     4.4   975.0    0.00 
 208    1:50   0.00   87.9    30    3.2    44     6.6   975.0    0.00 
 208    2:00   0.00   88.1    30    1.2    28     4.6   975.0    0.00 
 208    2:10   0.00   87.1    30    3.1    50     6.3   975.1    0.00 
 208    2:20   0.00   86.8    31    1.8    73     5.4   975.2    0.00 
 208    2:30   0.00   86.4    31    2.4    97     4.2   975.2    0.00 
 208    2:40   0.00   87.5    30    2.4   207     5.1   975.0    0.00 
 208    2:50   0.00   87.9    30    3.6   177     5.6   975.0    0.00 
 208    3:00   0.00   88.7    30    1.8   152     4.6   975.0    0.00 
 208    3:10   0.00   88.5    29    2.4   209     4.8   974.9    0.00 
 208    3:20   0.00   87.0    31    2.5    38     4.8   974.9    0.00 
 208    3:30   0.00   85.6    32    1.3    81     3.6   974.9    0.00 
 208    3:40   0.00   85.4    32    1.9    64     3.6   975.0    0.00 
 208    3:50   0.00   85.4    32    0.3    70     1.2   974.8    0.00 
 208    4:00   0.00   85.2    32    1.3   275     2.1   974.6    0.00 
 208    4:10   0.00   85.0    32    1.0   354     2.5   974.6    0.00 
 208    4:20   0.00   84.7    33    1.0   196     2.7   974.5    0.00 
 208    4:30   0.00   84.5    33    2.9    62     4.9   974.5    0.00 
 208    4:40   0.00   84.0    33    1.9    52     2.9   974.5    0.00 
 208    4:50   0.00   84.7    32    1.8   115     3.6   974.4    0.00 
 208    5:00   0.00   85.0    32    0.6   246     3.1   974.6    0.00 
 208    5:10   0.01   84.7    32    2.1   209     3.3   974.6    0.00 
 208    5:20   0.01   85.1    32    0.3   169     1.6   974.7    0.00 
 208    5:30   0.01   84.9    32    1.8   213     2.8   974.6    0.00 
 208    5:40   0.03   85.3    32    2.1   191     3.4   974.6    0.00 
 208    5:50   0.04   86.0    31    1.0   208     2.5   974.7    0.00 
 208    6:00   0.09   87.7    29    0.9   194     1.9   974.9    0.00 
 208    6:10   0.11   89.6    28    2.1   200     3.7   975.0    0.00 
 208    6:20   0.05   88.9    28    4.6   206     6.6   975.2    0.00 
 208    6:30   0.10   89.7    28    5.0   190     6.9   975.3    0.00 
 208    6:40   0.19   91.8    26    3.1   169     5.6   975.3    0.00 
 208    6:50   0.34   94.4    24    1.0   115     2.7   975.5    0.00 
 208    7:00   0.39   96.5    23    1.8    51     4.1   975.6    0.00 
 208    7:10   0.41   96.9    22    1.1   354     3.3   975.6    0.00 
 208    7:20   0.42   99.3    21    0.8   359     3.3   975.8    0.00 
 208    7:30   0.45   99.2    22    5.1    39     9.7   976.1    0.00 
 208    7:40   0.47   94.9    25    5.5     2     8.6   976.2    0.00 
 208    7:50   0.49   96.4    23    4.7    16     7.7   976.2    0.00 
 208    8:00   0.52   98.0    22    5.5   336     7.7   976.3    0.00 
 208    8:10   0.55   98.8    22    6.1    10     9.8   976.4    0.00 
 208    8:20   0.58   98.4    22    6.3   349     8.9   976.5    0.00 
 208    8:30   0.61   98.5    22    7.4   337     9.9   976.6    0.00 
 208    8:40   0.64   99.0    21    6.9   351    10.7   976.6    0.00 
 208    8:50   0.66   99.4    20    6.9   347     9.7   976.5    0.00 
 208    9:00   0.69   99.2    19    6.7   349    10.2   976.5    0.00 
 208    9:10   0.72   99.9    19    5.8   354     9.1   976.6    0.00 
 208    9:20   0.74  100.1    19    5.8   355     9.1   976.6    0.00 
 208    9:30   0.76  100.5    19    6.5     4     9.6   976.6    0.00 
 208    9:40   0.79  100.4    20    7.1    65    11.5   976.6    0.00 
 208    9:50   0.81   99.8    21    6.7    82    11.0   976.7    0.00 
 208   10:00   0.83  100.0    21    5.4    72    10.7   976.7    0.00 
 208   10:10   0.84   99.8    20    6.7    62    12.1   976.6    0.00 
 208   10:20   0.86  100.8    20    5.5    56     9.6   976.5    0.00 
 208   10:30   0.88  100.6    21    6.0    54    11.8   976.5    0.00 
 208   10:40   0.89  101.0    22    6.4    46    12.0   976.4    0.00 
 208   10:50   0.90  101.0    23    6.4    69    13.8   976.3    0.00 
 208   11:00   0.91  100.6    24    6.9    72    12.3   976.2    0.00 
 208   11:10   0.91  101.2    23    7.8    60    13.5   976.1    0.00 
 208   11:20   0.92  101.7    22    6.4    57    12.1   976.0    0.00 
 208   11:30   0.92  102.4    22    7.2    53    12.7   975.8    0.00 
 208   11:40   0.92  101.7    22    6.2    65     9.9   975.8    0.00 
 208   11:50   0.93  102.3    22    4.8    71     9.6   975.7    0.00 
 208   12:00   0.93  102.1    22    3.9    65     9.7   975.6    0.00 
 208   12:10   0.92  102.6    22    4.6    89    10.6   975.3    0.00 
 208   12:20   0.90  103.0    21    3.5    60    10.0   975.1    0.00 
 208   12:30   0.92  103.5    21    3.1    78     7.8   975.0    0.00 
 208   12:40   0.91  104.2    20    3.4    75    10.8   975.0    0.00 
 208   12:50   0.91  104.5    20    5.0    59    14.1   974.8    0.00 
 208   13:00   0.89  104.2    21    4.9    44    11.5   974.7    0.00 
 208   13:10   0.88  104.2    21    7.6    36    15.4   974.5    0.00 
 208   13:20   0.86  104.5    22    7.9    34    16.9   974.4    0.00 
 208   13:30   0.85  104.3    22    5.9    51    13.0   974.2    0.00 

Return to Boyd Deep Canyon Reserve graphs page.


Western Regional Climate Center,wrcc@dri.edu